createdAt,value
2023-04-25T00:02:10.004Z,1.65
2023-04-25T00:04:39.542Z,1.35
2023-04-25T00:07:08.154Z,1.73
2023-04-25T00:09:37.778Z,1.40
2023-04-25T00:12:06.293Z,1.38
2023-04-25T00:14:36.846Z,1.02
2023-04-25T00:17:05.559Z,1.10
2023-04-25T00:19:33.865Z,1.17
2023-04-25T00:22:01.956Z,1.58
2023-04-25T00:24:30.140Z,0.90
2023-04-25T00:26:59.926Z,1.38
2023-04-25T00:29:28.228Z,6.20
2023-04-25T00:31:56.480Z,11.68
2023-04-25T00:34:24.750Z,10.35
2023-04-25T00:36:53.070Z,9.50
2023-04-25T00:39:21.785Z,8.50
2023-04-25T00:41:54.278Z,8.65
2023-04-25T00:44:24.456Z,7.78
2023-04-25T00:46:53.673Z,6.43
2023-04-25T00:49:22.034Z,6.28
2023-04-25T00:51:50.807Z,4.25
2023-04-25T00:54:19.182Z,3.45
2023-04-25T00:56:47.556Z,3.30
2023-04-25T00:59:18.059Z,2.88
2023-04-25T01:01:47.811Z,2.25
2023-04-25T01:04:16.360Z,2.22
2023-04-25T01:06:44.872Z,1.70
2023-04-25T01:09:13.839Z,1.52
2023-04-25T01:11:42.326Z,1.38
2023-04-25T01:14:10.702Z,1.23
2023-04-25T01:16:39.304Z,1.52
2023-04-25T01:19:13.428Z,2.08
2023-04-25T01:21:43.225Z,1.70
2023-04-25T01:24:11.494Z,1.50
2023-04-25T01:26:41.278Z,1.95
2023-04-25T01:29:10.362Z,1.88
2023-04-25T01:31:39.135Z,2.05
2023-04-25T01:34:07.280Z,1.88
2023-04-25T01:36:36.907Z,2.08
2023-04-25T01:39:07.602Z,1.98
2023-04-25T01:41:36.735Z,1.58
2023-04-25T01:44:05.424Z,2.10
2023-04-25T01:46:33.980Z,1.95
2023-04-25T01:49:02.500Z,2.00
2023-04-25T01:51:31.080Z,2.22
2023-04-25T01:54:00.860Z,2.00
2023-04-25T01:56:34.573Z,2.05
2023-04-25T01:59:02.980Z,2.28
2023-04-25T02:01:31.256Z,2.08
2023-04-25T02:04:00.356Z,2.10
2023-04-25T02:06:28.819Z,1.80
2023-04-25T02:08:57.081Z,2.30
2023-04-25T02:11:25.410Z,3.00
2023-04-25T02:13:55.083Z,2.55
2023-04-25T02:16:23.357Z,2.38
2023-04-25T02:18:53.902Z,2.22
2023-04-25T02:21:22.106Z,2.63
2023-04-25T02:23:53.359Z,3.15
2023-04-25T02:26:22.145Z,2.90
2023-04-25T02:28:50.663Z,2.70
2023-04-25T02:31:20.364Z,3.35
2023-04-25T02:33:48.985Z,2.95
2023-04-25T02:36:17.250Z,2.85
2023-04-25T02:38:45.408Z,2.92
2023-04-25T02:41:13.691Z,2.97
2023-04-25T02:43:42.004Z,2.55
2023-04-25T02:46:10.238Z,2.70
2023-04-25T02:48:40.200Z,2.85
2023-04-25T02:51:08.949Z,2.60
2023-04-25T02:53:37.079Z,2.53
2023-04-25T02:56:05.734Z,2.88
2023-04-25T02:58:33.956Z,2.70
2023-04-25T03:01:02.126Z,2.67
2023-04-25T03:03:30.528Z,3.00
2023-04-25T03:06:00.529Z,2.83
2023-04-25T03:08:33.424Z,2.72
2023-04-25T03:11:01.855Z,2.80
2023-04-25T03:13:31.046Z,3.67
2023-04-25T03:15:59.485Z,2.05
2023-04-25T03:18:27.629Z,2.30
2023-04-25T03:20:56.141Z,2.08
2023-04-25T03:23:26.158Z,2.72
2023-04-25T03:25:54.448Z,1.65
2023-04-25T03:28:22.652Z,1.58
2023-04-25T03:30:50.884Z,2.95
2023-04-25T03:33:19.012Z,2.47
2023-04-25T03:35:47.189Z,1.92
2023-04-25T03:38:15.440Z,2.08
2023-04-25T03:40:45.152Z,1.95
2023-04-25T03:43:13.452Z,2.17
2023-04-25T03:45:42.180Z,1.83
2023-04-25T03:48:10.428Z,2.05
2023-04-25T03:50:38.604Z,2.30
2023-04-25T03:53:07.167Z,2.35
2023-04-25T03:55:35.426Z,2.38
2023-04-25T03:58:05.091Z,2.60
2023-04-25T04:00:33.527Z,2.03
2023-04-25T04:03:01.786Z,2.05
2023-04-25T04:05:30.092Z,2.05
2023-04-25T04:07:58.382Z,2.30
2023-04-25T04:10:27.194Z,2.60
2023-04-25T04:12:55.354Z,2.95
2023-04-25T04:15:25.044Z,3.22
2023-04-25T04:17:53.430Z,3.25
2023-04-25T04:20:21.792Z,4.22
2023-04-25T04:22:50.055Z,4.32
2023-04-25T04:25:19.178Z,4.50
2023-04-25T04:27:47.451Z,4.18
2023-04-25T04:30:16.097Z,4.32
2023-04-25T04:32:45.989Z,4.50
2023-04-25T04:35:14.693Z,5.78
2023-04-25T04:37:43.224Z,4.72
2023-04-25T04:40:12.202Z,5.38
2023-04-25T04:42:40.548Z,5.18
2023-04-25T04:45:09.685Z,5.40
2023-04-25T04:47:38.050Z,4.45
2023-04-25T04:50:09.722Z,4.85
2023-04-25T04:52:38.634Z,4.93
2023-04-25T04:55:09.186Z,4.68
2023-04-25T04:57:38.066Z,4.40
2023-04-25T05:00:09.153Z,4.10
2023-04-25T05:02:37.542Z,3.90
2023-04-25T05:05:08.682Z,4.70
2023-04-25T05:07:36.844Z,4.15
2023-04-25T05:10:05.993Z,4.70
2023-04-25T05:12:35.289Z,4.00
2023-04-25T05:15:05.217Z,4.45
2023-04-25T05:17:33.934Z,5.65
2023-04-25T05:20:02.866Z,4.43
2023-04-25T05:22:32.620Z,4.60
2023-04-25T05:25:00.917Z,5.50
2023-04-25T05:27:29.291Z,4.60
2023-04-25T05:29:57.537Z,5.47
2023-04-25T05:32:26.295Z,4.82
2023-04-25T05:34:54.831Z,4.43
2023-04-25T05:37:25.586Z,4.82
2023-04-25T05:39:55.549Z,4.95
2023-04-25T05:42:23.839Z,5.50
2023-04-25T05:44:52.010Z,4.93
2023-04-25T05:47:20.299Z,5.10
2023-04-25T05:49:48.813Z,5.18
2023-04-25T05:52:17.224Z,5.03
2023-04-25T05:54:45.402Z,5.05
2023-04-25T05:57:23.351Z,5.18
2023-04-25T05:59:51.872Z,5.55
2023-04-25T06:02:20.363Z,4.43
2023-04-25T06:04:48.823Z,4.55
2023-04-25T06:07:17.192Z,5.13
2023-04-25T06:09:45.634Z,5.55
2023-04-25T06:12:13.972Z,6.35
2023-04-25T06:14:43.573Z,5.47
2023-04-25T06:17:11.779Z,5.30
2023-04-25T06:19:39.900Z,4.05
2023-04-25T06:22:08.520Z,4.78
2023-04-25T06:24:36.977Z,3.90
2023-04-25T06:27:05.286Z,3.80
2023-04-25T06:29:33.459Z,4.38
2023-04-25T06:32:03.072Z,4.03
2023-04-25T06:34:31.232Z,4.25
2023-04-25T06:36:59.518Z,4.55
2023-04-25T06:39:27.877Z,3.70
2023-04-25T06:41:56.143Z,5.00
2023-04-25T06:44:27.232Z,4.28
2023-04-25T06:46:55.833Z,4.28
2023-04-25T06:49:25.441Z,5.00
2023-04-25T06:51:53.824Z,4.00
2023-04-25T06:54:22.166Z,4.70
2023-04-25T06:56:50.912Z,4.80
2023-04-25T06:59:19.166Z,4.63
2023-04-25T07:01:47.625Z,4.63
2023-04-25T07:04:16.521Z,4.82
2023-04-25T07:06:48.641Z,4.55
2023-04-25T07:09:16.870Z,5.72
2023-04-25T07:11:44.972Z,8.18
2023-04-25T07:14:13.300Z,4.13
2023-04-25T07:16:41.615Z,3.53
2023-04-25T07:19:09.973Z,3.40
2023-04-25T07:21:38.654Z,3.75
2023-04-25T07:24:09.367Z,3.65
2023-04-25T07:26:37.656Z,4.40
2023-04-25T07:29:06.095Z,4.60
2023-04-25T07:31:34.322Z,3.85
2023-04-25T07:34:02.560Z,3.63
2023-04-25T07:36:32.072Z,3.47
2023-04-25T07:39:00.325Z,3.75
2023-04-25T07:41:29.913Z,3.35
2023-04-25T07:43:58.176Z,4.53
2023-04-25T07:46:26.623Z,3.53
2023-04-25T07:48:54.900Z,3.83
2023-04-25T07:51:23.354Z,3.58
2023-04-25T07:53:51.752Z,3.13
2023-04-25T07:56:19.944Z,3.13
2023-04-25T07:58:49.986Z,3.15
2023-04-25T08:01:18.421Z,2.90
2023-04-25T08:03:46.787Z,3.80
2023-04-25T08:06:15.271Z,3.30
2023-04-25T08:08:43.583Z,3.08
2023-04-25T08:11:11.931Z,3.10
2023-04-25T08:13:40.112Z,2.15
2023-04-25T08:16:09.777Z,2.33
2023-04-25T08:18:38.131Z,2.40
2023-04-25T08:21:06.417Z,3.00
2023-04-25T08:27:35.247Z,4.07
2023-04-25T08:30:04.289Z,3.10
2023-04-25T08:32:34.914Z,2.30
2023-04-25T08:35:03.656Z,2.13
2023-04-25T08:37:32.003Z,1.77
2023-04-25T08:40:00.250Z,4.78
2023-04-25T08:42:31.279Z,3.78
2023-04-25T08:45:02.524Z,3.15
2023-04-25T08:47:35.766Z,3.45
2023-04-25T08:50:06.550Z,2.20
2023-04-25T08:52:39.620Z,2.28
2023-04-25T08:55:11.964Z,2.10
2023-04-25T08:57:41.122Z,2.20
2023-04-25T09:00:10.669Z,2.08
2023-04-25T09:02:41.929Z,1.70
2023-04-25T09:05:12.134Z,1.90
2023-04-25T09:07:40.561Z,2.40
2023-04-25T09:10:09.283Z,1.90
2023-04-25T09:12:38.077Z,2.97
2023-04-25T09:15:08.793Z,2.40
2023-04-25T09:17:41.397Z,2.78
2023-04-25T09:20:16.698Z,2.50
2023-04-25T09:22:48.193Z,2.40
2023-04-25T09:27:52.843Z,3.08
2023-04-25T09:30:30.765Z,2.85
2023-04-25T09:32:59.805Z,2.90
2023-04-25T09:35:29.674Z,2.60
2023-04-25T09:37:58.277Z,2.58
2023-04-25T09:40:26.541Z,2.33
2023-04-25T09:42:54.797Z,2.75
2023-04-25T09:45:23.556Z,1.80
2023-04-25T09:47:52.661Z,2.13
2023-04-25T09:50:21.295Z,2.72
2023-04-25T09:53:05.321Z,1.65
2023-04-25T09:55:34.465Z,2.05
2023-04-25T09:58:07.750Z,2.03
2023-04-25T10:00:36.646Z,2.83
2023-04-25T10:03:06.798Z,2.35
2023-04-25T10:05:36.820Z,2.58
2023-04-25T10:08:08.586Z,2.08
2023-04-25T10:10:39.621Z,2.05
2023-04-25T10:13:09.234Z,2.20
2023-04-25T10:15:40.018Z,1.80
2023-04-25T10:18:09.103Z,1.80
2023-04-25T10:20:37.551Z,2.35
2023-04-25T10:23:16.012Z,2.22
2023-04-25T10:25:44.666Z,1.83
2023-04-25T10:28:12.831Z,2.47
2023-04-25T10:30:59.894Z,1.70
2023-04-25T10:33:40.713Z,1.70
2023-04-25T10:36:16.823Z,1.37
2023-04-25T10:38:48.272Z,1.60
2023-04-25T10:43:46.090Z,2.15
2023-04-25T10:46:21.806Z,2.17
2023-04-25T10:48:51.862Z,1.73
2023-04-25T10:51:22.548Z,1.55
2023-04-25T10:54:01.734Z,1.10
2023-04-25T10:56:32.403Z,1.50
2023-04-25T10:59:11.092Z,1.40
2023-04-25T11:01:42.098Z,1.67
2023-04-25T11:04:22.807Z,1.30
2023-04-25T11:07:07.353Z,3.28
2023-04-25T11:09:38.676Z,2.58
2023-04-25T11:12:09.665Z,2.05
2023-04-25T11:14:38.309Z,1.40
2023-04-25T11:17:06.896Z,2.05
2023-04-25T11:19:35.154Z,1.80
2023-04-25T11:22:07.927Z,1.77
2023-04-25T11:24:38.610Z,1.95
2023-04-25T11:27:08.011Z,1.37
2023-04-25T11:29:37.211Z,1.50
2023-04-25T11:32:05.827Z,1.70
2023-04-25T11:34:35.652Z,1.83
2023-04-25T11:37:04.691Z,1.48
2023-04-25T11:39:33.093Z,2.05
2023-04-25T11:42:03.850Z,2.10
2023-04-25T11:44:36.492Z,3.05
2023-04-25T11:47:04.951Z,2.30
2023-04-25T11:49:33.628Z,4.03
2023-04-25T11:52:01.878Z,2.17
2023-04-25T11:54:29.941Z,1.58
2023-04-25T11:56:58.729Z,1.77
2023-04-25T11:59:29.068Z,1.70
2023-04-25T12:01:58.864Z,2.33
2023-04-25T12:04:27.863Z,2.08
2023-04-25T12:06:57.708Z,2.58
2023-04-25T12:09:31.621Z,2.08
2023-04-25T12:12:04.108Z,2.13
2023-04-25T12:14:36.024Z,2.17
2023-04-25T12:17:09.176Z,2.03
2023-04-25T12:19:41.272Z,1.70
2023-04-25T12:22:22.689Z,1.92
2023-04-25T12:24:50.921Z,1.60
2023-04-25T12:27:21.072Z,1.63
2023-04-25T12:29:58.437Z,2.15
2023-04-25T12:32:27.424Z,1.75
2023-04-25T12:34:55.756Z,2.42
2023-04-25T12:37:24.185Z,1.95
2023-04-25T12:39:53.051Z,1.50
2023-04-25T12:42:22.188Z,1.52
2023-04-25T12:44:50.485Z,2.20
2023-04-25T12:47:19.986Z,1.70
2023-04-25T12:49:48.316Z,2.25
2023-04-25T12:52:16.624Z,2.72
2023-04-25T12:54:44.909Z,1.58
2023-04-25T12:57:13.568Z,2.03
2023-04-25T12:59:41.732Z,1.75
2023-04-25T13:02:10.239Z,2.28
2023-04-25T13:04:39.918Z,1.55
2023-04-25T13:07:08.307Z,1.73
2023-04-25T13:09:36.472Z,2.10
2023-04-25T13:12:05.445Z,2.05
2023-04-25T13:14:33.713Z,2.08
2023-04-25T13:17:01.978Z,2.30
2023-04-25T13:19:30.265Z,2.58
2023-04-25T13:22:00.040Z,2.70
2023-04-25T13:24:28.702Z,2.13
2023-04-25T13:26:56.991Z,2.38
2023-04-25T13:29:25.337Z,2.92
2023-04-25T13:31:53.433Z,2.78
2023-04-25T13:34:21.836Z,3.30
2023-04-25T13:36:50.202Z,3.53
2023-04-25T13:39:19.969Z,3.30
2023-04-25T13:41:48.338Z,4.38
2023-04-25T13:44:16.695Z,2.53
2023-04-25T13:46:47.845Z,2.58
2023-04-25T13:49:17.050Z,3.38
2023-04-25T13:51:45.292Z,2.65
2023-04-25T13:54:13.717Z,2.50
2023-04-25T13:56:43.751Z,2.67
2023-04-25T13:59:12.362Z,2.63
2023-04-25T14:01:40.698Z,3.08
2023-04-25T14:04:09.163Z,2.90
2023-04-25T14:06:37.840Z,2.67
2023-04-25T14:09:08.204Z,3.25
2023-04-25T14:11:36.400Z,3.47
2023-04-25T14:14:05.993Z,2.90
2023-04-25T14:16:34.273Z,2.92
2023-04-25T14:19:02.889Z,2.83
2023-04-25T14:21:33.641Z,2.80
2023-04-25T14:24:01.884Z,2.43
2023-04-25T14:26:30.128Z,3.38
2023-04-25T14:28:58.240Z,3.38
2023-04-25T14:31:28.214Z,2.38
2023-04-25T14:33:59.106Z,2.80
2023-04-25T14:36:28.486Z,2.10
2023-04-25T14:38:56.732Z,3.00
2023-04-25T14:41:26.055Z,3.17
2023-04-25T14:43:54.942Z,3.85
2023-04-25T14:46:24.430Z,2.55
2023-04-25T14:48:54.460Z,2.15
2023-04-25T14:51:22.715Z,3.20
2023-04-25T14:53:51.887Z,2.10
2023-04-25T14:56:22.065Z,2.25
2023-04-25T14:58:50.225Z,2.28
2023-04-25T15:01:18.485Z,1.98
2023-04-25T15:03:47.025Z,2.17
2023-04-25T15:06:16.848Z,1.88
2023-04-25T15:08:45.026Z,1.60
2023-04-25T15:11:13.220Z,2.58
2023-04-25T15:13:41.572Z,3.90
2023-04-25T15:16:10.065Z,2.13
2023-04-25T15:18:38.768Z,2.03
2023-04-25T15:21:07.516Z,2.42
2023-04-25T15:23:37.224Z,2.08
2023-04-25T15:26:08.239Z,2.50
2023-04-25T15:28:36.451Z,2.75
2023-04-25T15:31:04.828Z,2.05
2023-04-25T15:33:33.491Z,2.20
2023-04-25T15:36:04.467Z,3.45
2023-04-25T15:38:32.788Z,2.40
2023-04-25T15:41:02.850Z,3.03
2023-04-25T15:43:31.956Z,2.28
2023-04-25T15:46:00.125Z,2.15
2023-04-25T15:48:28.429Z,2.47
2023-04-25T15:50:57.024Z,2.10
2023-04-25T15:53:25.289Z,2.72
2023-04-25T15:55:57.431Z,2.50
2023-04-25T15:58:27.816Z,2.70
2023-04-25T16:00:57.356Z,2.05
2023-04-25T16:03:26.113Z,2.22
2023-04-25T16:05:54.807Z,1.92
2023-04-25T16:08:23.139Z,3.45
2023-04-25T16:10:51.431Z,2.13
2023-04-25T16:13:19.556Z,1.98
2023-04-25T16:15:49.246Z,2.38
2023-04-25T16:18:17.640Z,1.90
2023-04-25T16:20:46.270Z,2.05
2023-04-25T16:23:14.517Z,2.60
2023-04-25T16:25:43.142Z,2.35
2023-04-25T16:28:11.586Z,2.40
2023-04-25T16:30:39.779Z,2.22
2023-04-25T16:33:10.111Z,2.25
2023-04-25T16:35:38.398Z,2.88
2023-04-25T16:38:06.722Z,3.30
2023-04-25T16:40:35.141Z,2.10
2023-04-25T16:43:03.683Z,2.45
2023-04-25T16:45:32.007Z,2.40
2023-04-25T16:48:00.294Z,2.30
2023-04-25T16:50:29.958Z,1.90
2023-04-25T16:52:58.176Z,2.33
2023-04-25T16:55:26.524Z,2.53
2023-04-25T16:57:55.242Z,2.38
2023-04-25T17:00:23.644Z,2.80
2023-04-25T17:02:52.374Z,2.88
2023-04-25T17:05:20.654Z,3.17
2023-04-25T17:07:50.419Z,4.07
2023-04-25T17:10:18.668Z,2.55
2023-04-25T17:12:48.218Z,1.73
2023-04-25T17:15:16.580Z,2.10
2023-04-25T17:17:44.823Z,2.63
2023-04-25T17:20:15.021Z,2.95
2023-04-25T17:22:43.423Z,2.40
2023-04-25T17:25:13.637Z,2.33
2023-04-25T17:27:42.005Z,1.73
2023-04-25T17:30:10.961Z,2.10
2023-04-25T17:32:39.481Z,2.00
2023-04-25T17:35:08.273Z,2.30
2023-04-25T17:37:36.521Z,2.80
2023-04-25T17:40:06.804Z,2.45
2023-04-25T17:42:36.863Z,2.80
2023-04-25T17:45:05.656Z,1.77
2023-04-25T17:47:33.939Z,1.85
2023-04-25T17:50:02.485Z,2.22
2023-04-25T17:52:30.808Z,2.08
2023-04-25T17:54:58.871Z,2.22
2023-04-25T17:57:27.494Z,2.25
2023-04-25T17:59:57.902Z,2.00
2023-04-25T18:02:27.178Z,2.03
2023-04-25T18:04:56.748Z,1.83
2023-04-25T18:07:24.950Z,2.08
2023-04-25T18:09:53.141Z,1.95
2023-04-25T18:12:21.684Z,2.13
2023-04-25T18:14:49.801Z,2.13
2023-04-25T18:17:20.199Z,2.30
2023-04-25T18:19:49.058Z,2.47
2023-04-25T18:22:17.336Z,2.30
2023-04-25T18:24:46.407Z,2.22
2023-04-25T18:27:14.791Z,1.95
2023-04-25T18:29:45.505Z,2.40
2023-04-25T18:32:14.370Z,2.10
2023-04-25T18:34:46.207Z,2.25
2023-04-25T18:37:14.524Z,2.35
2023-04-25T18:39:42.912Z,2.20
2023-04-25T18:42:11.086Z,2.60
2023-04-25T18:44:40.929Z,2.15
2023-04-25T18:47:10.233Z,2.58
2023-04-25T18:49:38.802Z,2.13
2023-04-25T18:52:10.820Z,1.92
2023-04-25T18:54:39.360Z,2.45
2023-04-25T18:57:07.703Z,2.80
2023-04-25T18:59:36.491Z,2.03
2023-04-25T19:02:05.599Z,2.08
2023-04-25T19:04:34.286Z,2.78
2023-04-25T19:07:02.729Z,2.35
2023-04-25T19:09:32.563Z,2.10
2023-04-25T19:12:01.870Z,1.98
2023-04-25T19:14:30.119Z,2.13
2023-04-25T19:16:59.567Z,2.78
2023-04-25T19:19:28.465Z,2.63
2023-04-25T19:21:56.760Z,5.57
2023-04-25T19:24:25.094Z,5.00
2023-04-25T19:26:54.733Z,3.20
2023-04-25T19:29:23.247Z,3.63
2023-04-25T19:31:51.747Z,2.13
2023-04-25T19:34:19.883Z,2.70
2023-04-25T19:36:48.941Z,2.50
2023-04-25T19:39:17.130Z,1.60
2023-04-25T19:41:45.364Z,2.10
2023-04-25T19:44:15.233Z,1.70
2023-04-25T19:46:45.943Z,2.03
2023-04-25T19:49:14.420Z,2.10
2023-04-25T19:51:43.245Z,2.60
2023-04-25T19:54:11.532Z,1.80
2023-04-25T19:56:39.843Z,1.90
2023-04-25T19:59:08.108Z,1.42
2023-04-25T20:01:37.691Z,1.73
2023-04-25T20:04:06.101Z,1.95
2023-04-25T20:06:34.506Z,1.77
2023-04-25T20:09:03.976Z,1.70
2023-04-25T20:11:32.172Z,1.98
2023-04-25T20:14:00.270Z,1.70
2023-04-25T20:16:28.889Z,1.48
2023-04-25T20:18:58.561Z,2.33
2023-04-25T20:21:27.564Z,2.28
2023-04-25T20:23:55.769Z,1.80
2023-04-25T20:26:24.092Z,1.77
2023-04-25T20:28:53.070Z,1.70
2023-04-25T20:31:22.444Z,2.00
2023-04-25T20:33:50.786Z,1.58
2023-04-25T20:36:20.607Z,1.90
2023-04-25T20:38:48.815Z,1.85
2023-04-25T20:41:17.157Z,1.65
2023-04-25T20:43:46.093Z,2.08
2023-04-25T20:46:14.396Z,1.48
2023-04-25T20:48:42.704Z,1.70
2023-04-25T20:51:12.122Z,2.00
2023-04-25T20:53:41.799Z,1.65
2023-04-25T20:56:11.002Z,2.40
2023-04-25T20:58:39.508Z,1.40
2023-04-25T21:01:08.264Z,2.67
2023-04-25T21:03:36.840Z,2.38
2023-04-25T21:06:05.364Z,1.83
2023-04-25T21:08:33.599Z,2.15
2023-04-25T21:11:03.281Z,2.00
2023-04-25T21:13:31.994Z,1.83
2023-04-25T21:16:00.906Z,2.53
2023-04-25T21:18:31.964Z,1.95
2023-04-25T21:21:01.333Z,1.50
2023-04-25T21:23:29.838Z,1.85
2023-04-25T21:25:57.999Z,2.58
2023-04-25T21:28:27.724Z,1.50
2023-04-25T21:30:56.037Z,1.60
2023-04-25T21:33:24.722Z,2.22
2023-04-25T21:35:53.698Z,2.17
2023-04-25T21:38:21.796Z,1.70
2023-04-25T21:40:50.079Z,2.08
2023-04-25T21:43:18.514Z,1.67
2023-04-25T21:46:14.661Z,1.80
2023-04-25T21:48:36.267Z,1.58
2023-04-25T21:51:04.504Z,1.50
2023-04-25T21:53:33.057Z,2.00
2023-04-25T21:56:01.377Z,2.42
2023-04-25T21:58:29.557Z,2.17
2023-04-25T22:01:00.677Z,1.65
2023-04-25T22:03:29.210Z,1.55
2023-04-25T22:05:57.776Z,1.92
2023-04-25T22:08:25.900Z,1.58
2023-04-25T22:10:55.766Z,1.75
2023-04-25T22:13:24.053Z,2.13
2023-04-25T22:15:52.724Z,2.17
2023-04-25T22:18:22.316Z,1.85
2023-04-25T22:20:50.876Z,2.13
2023-04-25T22:23:19.127Z,2.03
2023-04-25T22:25:48.833Z,2.10
2023-04-25T22:28:17.011Z,2.63
2023-04-25T22:30:45.196Z,1.92
2023-04-25T22:33:13.375Z,1.73
2023-04-25T22:35:43.000Z,1.98
2023-04-25T22:38:11.486Z,2.72
2023-04-25T22:40:39.821Z,2.15
2023-04-25T22:43:07.942Z,2.40
2023-04-25T22:45:36.375Z,2.63
2023-04-25T22:48:04.696Z,2.60
2023-04-25T22:50:33.144Z,2.65
2023-04-25T22:53:04.138Z,1.80
2023-04-25T22:55:32.476Z,1.98
2023-04-25T22:58:01.325Z,2.08
2023-04-25T23:00:30.448Z,1.85
2023-04-25T23:02:58.769Z,3.95
2023-04-25T23:05:27.565Z,2.58
2023-04-25T23:07:56.182Z,2.20
2023-04-25T23:10:26.003Z,2.42
2023-04-25T23:12:54.901Z,2.50
2023-04-25T23:15:23.193Z,2.70
2023-04-25T23:17:51.631Z,2.40
2023-04-25T23:20:21.182Z,2.28
2023-04-25T23:22:49.879Z,2.40
2023-04-25T23:25:19.235Z,2.58
2023-04-25T23:27:49.297Z,2.65
2023-04-25T23:30:17.903Z,2.33
2023-04-25T23:32:46.352Z,2.10
2023-04-25T23:35:19.637Z,2.05
2023-04-25T23:37:49.282Z,2.72
2023-04-25T23:40:17.482Z,3.10
2023-04-25T23:42:45.769Z,3.70
2023-04-25T23:45:16.743Z,2.50
2023-04-25T23:47:45.066Z,3.05
2023-04-25T23:50:13.392Z,2.80
2023-04-25T23:52:41.688Z,2.60
2023-04-25T23:55:10.830Z,3.25
2023-04-25T23:57:39.098Z,2.70
